sensor_id;sensor_type;location;lat;lon;timestamp;temperature;humidity
4374;DHT22;2201;51.100;6.814;2023-04-30T00:01:20;9.20;98.20
4374;DHT22;2201;51.100;6.814;2023-04-30T00:03:46;9.20;98.20
4374;DHT22;2201;51.100;6.814;2023-04-30T00:06:15;9.20;98.20
4374;DHT22;2201;51.100;6.814;2023-04-30T00:08:41;9.20;98.20
4374;DHT22;2201;51.100;6.814;2023-04-30T00:11:08;9.10;98.20
4374;DHT22;2201;51.100;6.814;2023-04-30T00:13:35;9.10;98.20
4374;DHT22;2201;51.100;6.814;2023-04-30T00:16:02;9.10;98.20
4374;DHT22;2201;51.100;6.814;2023-04-30T00:18:28;9.00;98.20
4374;DHT22;2201;51.100;6.814;2023-04-30T00:20:55;9.00;98.20
4374;DHT22;2201;51.100;6.814;2023-04-30T00:23:23;8.90;98.20
4374;DHT22;2201;51.100;6.814;2023-04-30T00:25:50;8.80;98.20
4374;DHT22;2201;51.100;6.814;2023-04-30T00:28:17;8.80;98.20
4374;DHT22;2201;51.100;6.814;2023-04-30T00:30:44;8.80;98.20
4374;DHT22;2201;51.100;6.814;2023-04-30T00:33:11;8.80;98.20
4374;DHT22;2201;51.100;6.814;2023-04-30T00:35:37;8.70;98.20
4374;DHT22;2201;51.100;6.814;2023-04-30T00:38:05;8.70;98.20
4374;DHT22;2201;51.100;6.814;2023-04-30T00:40:34;8.70;98.20
4374;DHT22;2201;51.100;6.814;2023-04-30T00:43:01;8.70;98.20
4374;DHT22;2201;51.100;6.814;2023-04-30T00:45:28;8.60;98.20
4374;DHT22;2201;51.100;6.814;2023-04-30T00:47:55;8.60;98.20
4374;DHT22;2201;51.100;6.814;2023-04-30T00:50:21;8.60;98.20
4374;DHT22;2201;51.100;6.814;2023-04-30T00:52:49;8.60;98.20
4374;DHT22;2201;51.100;6.814;2023-04-30T00:55:16;8.60;98.20
4374;DHT22;2201;51.100;6.814;2023-04-30T00:57:44;8.60;98.20
4374;DHT22;2201;51.100;6.814;2023-04-30T01:00:12;8.60;98.20
4374;DHT22;2201;51.100;6.814;2023-04-30T01:02:40;8.60;98.20
4374;DHT22;2201;51.100;6.814;2023-04-30T01:05:07;8.60;98.20
4374;DHT22;2201;51.100;6.814;2023-04-30T01:07:34;8.60;98.20
4374;DHT22;2201;51.100;6.814;2023-04-30T01:10:03;8.60;98.20
4374;DHT22;2201;51.100;6.814;2023-04-30T01:12:36;8.60;98.20
4374;DHT22;2201;51.100;6.814;2023-04-30T01:15:13;8.60;98.20
4374;DHT22;2201;51.100;6.814;2023-04-30T01:17:46;8.60;98.20
4374;DHT22;2201;51.100;6.814;2023-04-30T01:20:14;8.50;98.20
4374;DHT22;2201;51.100;6.814;2023-04-30T01:22:45;8.50;98.20
4374;DHT22;2201;51.100;6.814;2023-04-30T01:28:22;8.40;98.20
4374;DHT22;2201;51.100;6.814;2023-04-30T01:30:50;8.40;98.20
4374;DHT22;2201;51.100;6.814;2023-04-30T01:33:17;8.40;98.20
4374;DHT22;2201;51.100;6.814;2023-04-30T01:35:57;8.30;98.20
4374;DHT22;2201;51.100;6.814;2023-04-30T01:38:45;8.30;98.20
4374;DHT22;2201;51.100;6.814;2023-04-30T01:41:25;8.20;98.20
4374;DHT22;2201;51.100;6.814;2023-04-30T01:44:19;8.20;98.20
4374;DHT22;2201;51.100;6.814;2023-04-30T01:46:57;8.10;98.20
4374;DHT22;2201;51.100;6.814;2023-04-30T01:49:29;8.10;98.20
4374;DHT22;2201;51.100;6.814;2023-04-30T01:52:05;8.00;98.20
4374;DHT22;2201;51.100;6.814;2023-04-30T01:54:40;8.00;98.20
4374;DHT22;2201;51.100;6.814;2023-04-30T01:57:17;8.00;98.20
4374;DHT22;2201;51.100;6.814;2023-04-30T01:59:46;7.90;98.20
4374;DHT22;2201;51.100;6.814;2023-04-30T02:02:13;7.90;98.20
4374;DHT22;2201;51.100;6.814;2023-04-30T02:04:40;7.80;98.20
4374;DHT22;2201;51.100;6.814;2023-04-30T02:07:07;7.80;98.20
4374;DHT22;2201;51.100;6.814;2023-04-30T02:09:34;7.70;98.20
4374;DHT22;2201;51.100;6.814;2023-04-30T02:12:00;7.70;98.20
4374;DHT22;2201;51.100;6.814;2023-04-30T02:14:30;7.70;98.20
4374;DHT22;2201;51.100;6.814;2023-04-30T02:16:58;7.70;98.20
4374;DHT22;2201;51.100;6.814;2023-04-30T02:19:25;7.60;98.20
4374;DHT22;2201;51.100;6.814;2023-04-30T02:21:51;7.60;98.20
4374;DHT22;2201;51.100;6.814;2023-04-30T02:24:18;7.60;98.20
4374;DHT22;2201;51.100;6.814;2023-04-30T02:26:45;7.60;98.20
4374;DHT22;2201;51.100;6.814;2023-04-30T02:29:11;7.60;98.20
4374;DHT22;2201;51.100;6.814;2023-04-30T02:31:38;7.60;98.20
4374;DHT22;2201;51.100;6.814;2023-04-30T02:34:06;7.60;98.20
4374;DHT22;2201;51.100;6.814;2023-04-30T02:36:33;7.60;98.20
4374;DHT22;2201;51.100;6.814;2023-04-30T02:39:01;7.50;98.20
4374;DHT22;2201;51.100;6.814;2023-04-30T02:41:27;7.50;98.20
4374;DHT22;2201;51.100;6.814;2023-04-30T02:43:54;7.50;98.20
4374;DHT22;2201;51.100;6.814;2023-04-30T02:46:21;7.40;98.20
4374;DHT22;2201;51.100;6.814;2023-04-30T02:48:48;7.40;98.20
4374;DHT22;2201;51.100;6.814;2023-04-30T02:51:16;7.30;98.20
4374;DHT22;2201;51.100;6.814;2023-04-30T02:53:43;7.30;98.20
4374;DHT22;2201;51.100;6.814;2023-04-30T02:56:10;7.30;98.20
4374;DHT22;2201;51.100;6.814;2023-04-30T02:58:37;7.20;98.20
4374;DHT22;2201;51.100;6.814;2023-04-30T03:01:04;7.20;98.20
4374;DHT22;2201;51.100;6.814;2023-04-30T03:03:30;7.20;98.20
4374;DHT22;2201;51.100;6.814;2023-04-30T03:05:58;7.20;98.20
4374;DHT22;2201;51.100;6.814;2023-04-30T03:08:26;7.20;98.20
4374;DHT22;2201;51.100;6.814;2023-04-30T03:10:53;7.20;98.20
4374;DHT22;2201;51.100;6.814;2023-04-30T03:13:19;7.10;98.20
4374;DHT22;2201;51.100;6.814;2023-04-30T03:15:46;7.10;98.20
4374;DHT22;2201;51.100;6.814;2023-04-30T03:18:13;7.10;98.20
4374;DHT22;2201;51.100;6.814;2023-04-30T03:20:40;7.10;98.20
4374;DHT22;2201;51.100;6.814;2023-04-30T03:23:07;7.10;98.20
4374;DHT22;2201;51.100;6.814;2023-04-30T03:25:35;7.00;98.20
4374;DHT22;2201;51.100;6.814;2023-04-30T03:28:01;7.00;98.20
4374;DHT22;2201;51.100;6.814;2023-04-30T03:30:28;7.00;98.20
4374;DHT22;2201;51.100;6.814;2023-04-30T03:32:55;7.00;98.20
4374;DHT22;2201;51.100;6.814;2023-04-30T03:35:22;7.00;98.20
4374;DHT22;2201;51.100;6.814;2023-04-30T03:37:49;6.90;98.20
4374;DHT22;2201;51.100;6.814;2023-04-30T03:40:15;6.90;98.20
4374;DHT22;2201;51.100;6.814;2023-04-30T03:42:44;6.90;98.20
4374;DHT22;2201;51.100;6.814;2023-04-30T03:45:10;6.90;98.20
4374;DHT22;2201;51.100;6.814;2023-04-30T03:47:37;6.90;98.20
4374;DHT22;2201;51.100;6.814;2023-04-30T03:50:05;6.90;98.20
4374;DHT22;2201;51.100;6.814;2023-04-30T03:52:32;6.90;98.20
4374;DHT22;2201;51.100;6.814;2023-04-30T03:54:59;6.90;98.20
4374;DHT22;2201;51.100;6.814;2023-04-30T03:57:26;6.90;98.20
4374;DHT22;2201;51.100;6.814;2023-04-30T03:59:54;6.80;98.20
4374;DHT22;2201;51.100;6.814;2023-04-30T04:02:21;6.80;98.20
4374;DHT22;2201;51.100;6.814;2023-04-30T04:04:48;6.80;98.20
4374;DHT22;2201;51.100;6.814;2023-04-30T04:07:16;6.80;98.20
4374;DHT22;2201;51.100;6.814;2023-04-30T04:09:43;6.80;98.20
4374;DHT22;2201;51.100;6.814;2023-04-30T04:12:10;6.80;98.20
4374;DHT22;2201;51.100;6.814;2023-04-30T04:14:36;6.70;98.20
4374;DHT22;2201;51.100;6.814;2023-04-30T04:17:05;6.70;98.20
4374;DHT22;2201;51.100;6.814;2023-04-30T04:19:31;6.70;98.20
4374;DHT22;2201;51.100;6.814;2023-04-30T04:21:58;6.70;98.20
4374;DHT22;2201;51.100;6.814;2023-04-30T04:24:25;6.70;98.20
4374;DHT22;2201;51.100;6.814;2023-04-30T04:26:52;6.70;98.20
4374;DHT22;2201;51.100;6.814;2023-04-30T04:29:19;6.70;98.20
4374;DHT22;2201;51.100;6.814;2023-04-30T04:31:46;6.70;98.20
4374;DHT22;2201;51.100;6.814;2023-04-30T04:34:15;6.70;98.20
4374;DHT22;2201;51.100;6.814;2023-04-30T04:36:42;6.70;98.20
4374;DHT22;2201;51.100;6.814;2023-04-30T04:39:08;6.70;98.20
4374;DHT22;2201;51.100;6.814;2023-04-30T04:41:36;6.70;98.20
4374;DHT22;2201;51.100;6.814;2023-04-30T04:44:03;6.70;98.20
4374;DHT22;2201;51.100;6.814;2023-04-30T04:46:30;6.70;98.20
4374;DHT22;2201;51.100;6.814;2023-04-30T04:48:57;6.70;98.20
4374;DHT22;2201;51.100;6.814;2023-04-30T04:51:25;6.70;98.20
4374;DHT22;2201;51.100;6.814;2023-04-30T04:53:52;6.70;98.20
4374;DHT22;2201;51.100;6.814;2023-04-30T04:56:19;6.70;98.20
4374;DHT22;2201;51.100;6.814;2023-04-30T04:58:46;6.80;98.20
4374;DHT22;2201;51.100;6.814;2023-04-30T05:01:13;6.80;98.20
4374;DHT22;2201;51.100;6.814;2023-04-30T05:03:40;6.80;98.20
4374;DHT22;2201;51.100;6.814;2023-04-30T05:06:06;6.80;98.20
4374;DHT22;2201;51.100;6.814;2023-04-30T05:08:34;6.90;98.20
4374;DHT22;2201;51.100;6.814;2023-04-30T05:11:02;6.90;98.20
4374;DHT22;2201;51.100;6.814;2023-04-30T05:13:29;7.00;98.20
4374;DHT22;2201;51.100;6.814;2023-04-30T05:15:56;7.10;98.20
4374;DHT22;2201;51.100;6.814;2023-04-30T05:18:23;7.20;98.20
4374;DHT22;2201;51.100;6.814;2023-04-30T05:20:50;7.30;98.20
4374;DHT22;2201;51.100;6.814;2023-04-30T05:23:16;7.50;98.20
4374;DHT22;2201;51.100;6.814;2023-04-30T05:25:45;7.70;98.20
4374;DHT22;2201;51.100;6.814;2023-04-30T05:28:11;7.90;98.20
4374;DHT22;2201;51.100;6.814;2023-04-30T05:30:38;8.10;98.20
4374;DHT22;2201;51.100;6.814;2023-04-30T05:33:05;8.40;98.20
4374;DHT22;2201;51.100;6.814;2023-04-30T05:35:32;8.70;98.20
4374;DHT22;2201;51.100;6.814;2023-04-30T05:38:00;9.00;98.20
4374;DHT22;2201;51.100;6.814;2023-04-30T05:40:27;9.20;98.20
4374;DHT22;2201;51.100;6.814;2023-04-30T05:42:55;9.40;98.20
4374;DHT22;2201;51.100;6.814;2023-04-30T05:45:22;9.60;98.20
4374;DHT22;2201;51.100;6.814;2023-04-30T05:47:49;9.90;98.20
4374;DHT22;2201;51.100;6.814;2023-04-30T05:50:16;10.20;98.20
4374;DHT22;2201;51.100;6.814;2023-04-30T05:52:42;10.30;98.20
4374;DHT22;2201;51.100;6.814;2023-04-30T05:55:09;10.50;98.20
4374;DHT22;2201;51.100;6.814;2023-04-30T05:57:36;10.70;98.20
4374;DHT22;2201;51.100;6.814;2023-04-30T06:00:06;11.00;98.20
4374;DHT22;2201;51.100;6.814;2023-04-30T06:02:33;11.20;98.20
4374;DHT22;2201;51.100;6.814;2023-04-30T06:05:00;11.50;98.20
4374;DHT22;2201;51.100;6.814;2023-04-30T06:07:27;11.70;98.20
4374;DHT22;2201;51.100;6.814;2023-04-30T06:09:55;11.90;98.20
4374;DHT22;2201;51.100;6.814;2023-04-30T06:12:21;12.10;98.20
4374;DHT22;2201;51.100;6.814;2023-04-30T06:14:48;12.20;98.20
4374;DHT22;2201;51.100;6.814;2023-04-30T06:17:17;12.30;98.20
4374;DHT22;2201;51.100;6.814;2023-04-30T06:19:43;12.50;98.20
4374;DHT22;2201;51.100;6.814;2023-04-30T06:22:11;12.70;98.20
4374;DHT22;2201;51.100;6.814;2023-04-30T06:24:38;12.80;98.20
4374;DHT22;2201;51.100;6.814;2023-04-30T06:27:05;13.00;98.20
4374;DHT22;2201;51.100;6.814;2023-04-30T06:29:31;13.20;98.20
4374;DHT22;2201;51.100;6.814;2023-04-30T06:31:58;13.50;98.20
4374;DHT22;2201;51.100;6.814;2023-04-30T06:34:26;13.70;98.20
4374;DHT22;2201;51.100;6.814;2023-04-30T06:36:53;13.90;98.20
4374;DHT22;2201;51.100;6.814;2023-04-30T06:39:20;14.00;98.20
4374;DHT22;2201;51.100;6.814;2023-04-30T06:41:47;14.20;98.20
4374;DHT22;2201;51.100;6.814;2023-04-30T06:44:14;14.30;98.20
4374;DHT22;2201;51.100;6.814;2023-04-30T06:46:41;14.40;98.20
4374;DHT22;2201;51.100;6.814;2023-04-30T06:49:08;14.50;98.20
4374;DHT22;2201;51.100;6.814;2023-04-30T06:51:36;14.70;98.20
4374;DHT22;2201;51.100;6.814;2023-04-30T06:54:03;14.80;98.20
4374;DHT22;2201;51.100;6.814;2023-04-30T06:56:30;14.90;98.20
4374;DHT22;2201;51.100;6.814;2023-04-30T06:58:57;15.00;98.20
4374;DHT22;2201;51.100;6.814;2023-04-30T07:01:24;15.10;98.20
4374;DHT22;2201;51.100;6.814;2023-04-30T07:03:51;15.30;98.20
4374;DHT22;2201;51.100;6.814;2023-04-30T07:06:19;15.50;98.20
4374;DHT22;2201;51.100;6.814;2023-04-30T07:08:47;15.70;98.00
4374;DHT22;2201;51.100;6.814;2023-04-30T07:11:14;15.90;96.50
4374;DHT22;2201;51.100;6.814;2023-04-30T07:13:41;16.10;96.40
4374;DHT22;2201;51.100;6.814;2023-04-30T07:16:08;16.20;96.00
4374;DHT22;2201;51.100;6.814;2023-04-30T07:18:35;16.30;95.50
4374;DHT22;2201;51.100;6.814;2023-04-30T07:21:04;16.50;94.80
4374;DHT22;2201;51.100;6.814;2023-04-30T07:23:33;16.70;95.30
4374;DHT22;2201;51.100;6.814;2023-04-30T07:26:01;16.80;94.30
4374;DHT22;2201;51.100;6.814;2023-04-30T07:28:28;16.80;93.70
4374;DHT22;2201;51.100;6.814;2023-04-30T07:30:55;16.70;94.20
4374;DHT22;2201;51.100;6.814;2023-04-30T07:33:22;16.80;95.10
4374;DHT22;2201;51.100;6.814;2023-04-30T07:36:16;17.00;94.00
4374;DHT22;2201;51.100;6.814;2023-04-30T07:38:43;17.20;93.80
4374;DHT22;2201;51.100;6.814;2023-04-30T07:41:14;17.40;95.40
4374;DHT22;2201;51.100;6.814;2023-04-30T07:43:44;17.60;92.00
4374;DHT22;2201;51.100;6.814;2023-04-30T07:46:13;17.70;92.50
4374;DHT22;2201;51.100;6.814;2023-04-30T07:48:40;17.90;92.50
4374;DHT22;2201;51.100;6.814;2023-04-30T07:51:07;18.00;91.00
4374;DHT22;2201;51.100;6.814;2023-04-30T07:53:34;18.00;90.90
4374;DHT22;2201;51.100;6.814;2023-04-30T07:56:01;18.00;90.70
4374;DHT22;2201;51.100;6.814;2023-04-30T07:58:29;18.10;91.50
4374;DHT22;2201;51.100;6.814;2023-04-30T08:00:56;18.30;90.80
4374;DHT22;2201;51.100;6.814;2023-04-30T08:03:29;18.40;89.60
4374;DHT22;2201;51.100;6.814;2023-04-30T08:05:56;18.60;87.90
4374;DHT22;2201;51.100;6.814;2023-04-30T08:08:23;18.60;88.30
4374;DHT22;2201;51.100;6.814;2023-04-30T08:10:49;18.80;89.40
4374;DHT22;2201;51.100;6.814;2023-04-30T08:13:19;18.90;89.20
4374;DHT22;2201;51.100;6.814;2023-04-30T08:15:48;18.90;87.80
4374;DHT22;2201;51.100;6.814;2023-04-30T08:18:14;18.90;87.40
4374;DHT22;2201;51.100;6.814;2023-04-30T08:20:44;18.80;88.50
4374;DHT22;2201;51.100;6.814;2023-04-30T08:23:11;18.90;90.00
4374;DHT22;2201;51.100;6.814;2023-04-30T08:25:37;19.10;87.90
4374;DHT22;2201;51.100;6.814;2023-04-30T08:28:05;19.40;87.20
4374;DHT22;2201;51.100;6.814;2023-04-30T08:30:32;19.60;87.00
4374;DHT22;2201;51.100;6.814;2023-04-30T08:33:00;19.80;86.20
4374;DHT22;2201;51.100;6.814;2023-04-30T08:35:27;20.10;86.90
4374;DHT22;2201;51.100;6.814;2023-04-30T08:37:55;20.20;83.60
4374;DHT22;2201;51.100;6.814;2023-04-30T08:40:24;20.10;83.10
4374;DHT22;2201;51.100;6.814;2023-04-30T08:43:16;20.10;83.00
4374;DHT22;2201;51.100;6.814;2023-04-30T08:45:44;19.90;83.30
4374;DHT22;2201;51.100;6.814;2023-04-30T08:48:22;20.00;84.80
4374;DHT22;2201;51.100;6.814;2023-04-30T08:50:50;20.00;83.10
4374;DHT22;2201;51.100;6.814;2023-04-30T08:53:18;20.20;81.80
4374;DHT22;2201;51.100;6.814;2023-04-30T08:55:46;20.40;80.40
4374;DHT22;2201;51.100;6.814;2023-04-30T08:58:15;20.30;80.20
4374;DHT22;2201;51.100;6.814;2023-04-30T09:00:42;20.40;82.80
4374;DHT22;2201;51.100;6.814;2023-04-30T09:03:10;20.40;81.20
4374;DHT22;2201;51.100;6.814;2023-04-30T09:05:42;20.50;81.30
4374;DHT22;2201;51.100;6.814;2023-04-30T09:08:17;20.60;82.00
4374;DHT22;2201;51.100;6.814;2023-04-30T09:10:45;20.70;81.20
4374;DHT22;2201;51.100;6.814;2023-04-30T09:13:12;20.90;79.70
4374;DHT22;2201;51.100;6.814;2023-04-30T09:15:39;20.80;79.60
4374;DHT22;2201;51.100;6.814;2023-04-30T09:18:12;20.90;79.90
4374;DHT22;2201;51.100;6.814;2023-04-30T09:20:56;21.10;80.80
4374;DHT22;2201;51.100;6.814;2023-04-30T09:23:24;21.30;80.80
4374;DHT22;2201;51.100;6.814;2023-04-30T09:25:50;21.10;78.00
4374;DHT22;2201;51.100;6.814;2023-04-30T09:28:18;21.20;80.80
4374;DHT22;2201;51.100;6.814;2023-04-30T09:30:58;21.30;80.60
4374;DHT22;2201;51.100;6.814;2023-04-30T09:33:26;21.50;80.20
4374;DHT22;2201;51.100;6.814;2023-04-30T09:35:56;21.80;80.10
4374;DHT22;2201;51.100;6.814;2023-04-30T09:38:30;22.00;78.00
4374;DHT22;2201;51.100;6.814;2023-04-30T09:41:01;22.10;76.60
4374;DHT22;2201;51.100;6.814;2023-04-30T09:43:29;22.20;77.40
4374;DHT22;2201;51.100;6.814;2023-04-30T09:45:58;22.30;75.30
4374;DHT22;2201;51.100;6.814;2023-04-30T09:48:26;22.40;77.10
4374;DHT22;2201;51.100;6.814;2023-04-30T09:50:53;22.60;77.50
4374;DHT22;2201;51.100;6.814;2023-04-30T09:53:21;22.80;77.00
4374;DHT22;2201;51.100;6.814;2023-04-30T09:55:49;22.90;75.50
4374;DHT22;2201;51.100;6.814;2023-04-30T09:58:17;22.90;76.30
4374;DHT22;2201;51.100;6.814;2023-04-30T10:00:52;23.10;76.00
4374;DHT22;2201;51.100;6.814;2023-04-30T10:03:21;23.10;74.10
4374;DHT22;2201;51.100;6.814;2023-04-30T10:06:01;23.10;74.60
4374;DHT22;2201;51.100;6.814;2023-04-30T10:08:37;23.40;74.40
4374;DHT22;2201;51.100;6.814;2023-04-30T10:11:46;23.70;74.60
4374;DHT22;2201;51.100;6.814;2023-04-30T10:14:17;23.90;74.90
4374;DHT22;2201;51.100;6.814;2023-04-30T10:20:15;24.10;74.50
4374;DHT22;2201;51.100;6.814;2023-04-30T10:22:43;24.50;72.50
4374;DHT22;2201;51.100;6.814;2023-04-30T10:25:13;24.70;70.80
4374;DHT22;2201;51.100;6.814;2023-04-30T10:27:40;24.40;68.50
4374;DHT22;2201;51.100;6.814;2023-04-30T10:30:09;24.30;73.40
4374;DHT22;2201;51.100;6.814;2023-04-30T10:32:50;24.40;72.20
4374;DHT22;2201;51.100;6.814;2023-04-30T10:35:32;24.40;70.30
4374;DHT22;2201;51.100;6.814;2023-04-30T10:38:12;24.40;73.10
4374;DHT22;2201;51.100;6.814;2023-04-30T10:40:45;24.60;71.40
4374;DHT22;2201;51.100;6.814;2023-04-30T10:43:13;24.80;70.40
4374;DHT22;2201;51.100;6.814;2023-04-30T10:45:45;25.00;70.70
4374;DHT22;2201;51.100;6.814;2023-04-30T10:48:15;25.20;69.30
4374;DHT22;2201;51.100;6.814;2023-04-30T10:50:50;25.40;70.20
4374;DHT22;2201;51.100;6.814;2023-04-30T10:53:20;25.70;68.90
4374;DHT22;2201;51.100;6.814;2023-04-30T10:55:57;25.70;68.20
4374;DHT22;2201;51.100;6.814;2023-04-30T10:58:26;25.80;68.60
4374;DHT22;2201;51.100;6.814;2023-04-30T11:01:05;26.00;66.70
4374;DHT22;2201;51.100;6.814;2023-04-30T11:03:34;26.10;68.20
4374;DHT22;2201;51.100;6.814;2023-04-30T11:06:07;25.70;65.80
4374;DHT22;2201;51.100;6.814;2023-04-30T11:08:42;25.10;66.50
4374;DHT22;2201;51.100;6.814;2023-04-30T11:11:20;24.50;68.00
4374;DHT22;2201;51.100;6.814;2023-04-30T11:13:59;24.00;69.50
4374;DHT22;2201;51.100;6.814;2023-04-30T11:16:28;23.80;69.40
4374;DHT22;2201;51.100;6.814;2023-04-30T11:19:04;23.90;71.30
4374;DHT22;2201;51.100;6.814;2023-04-30T11:21:32;24.20;70.20
4374;DHT22;2201;51.100;6.814;2023-04-30T11:24:02;24.50;68.00
4374;DHT22;2201;51.100;6.814;2023-04-30T11:27:03;24.70;67.80
4374;DHT22;2201;51.100;6.814;2023-04-30T11:29:31;24.70;69.40
4374;DHT22;2201;51.100;6.814;2023-04-30T11:31:59;24.40;67.70
4374;DHT22;2201;51.100;6.814;2023-04-30T11:34:26;24.40;68.70
4374;DHT22;2201;51.100;6.814;2023-04-30T11:36:54;24.40;69.10
4374;DHT22;2201;51.100;6.814;2023-04-30T11:39:25;24.70;70.10
4374;DHT22;2201;51.100;6.814;2023-04-30T11:41:54;24.80;67.70
4374;DHT22;2201;51.100;6.814;2023-04-30T11:44:22;24.50;66.50
4374;DHT22;2201;51.100;6.814;2023-04-30T11:46:51;24.10;67.40
4374;DHT22;2201;51.100;6.814;2023-04-30T11:49:20;23.80;68.20
4374;DHT22;2201;51.100;6.814;2023-04-30T11:51:48;23.30;66.90
4374;DHT22;2201;51.100;6.814;2023-04-30T11:54:29;23.00;69.10
4374;DHT22;2201;51.100;6.814;2023-04-30T11:57:01;22.80;69.70
4374;DHT22;2201;51.100;6.814;2023-04-30T11:59:40;22.80;69.70
4374;DHT22;2201;51.100;6.814;2023-04-30T12:02:41;22.80;69.10
4374;DHT22;2201;51.100;6.814;2023-04-30T12:05:28;22.90;70.40
4374;DHT22;2201;51.100;6.814;2023-04-30T12:07:56;23.40;71.50
4374;DHT22;2201;51.100;6.814;2023-04-30T12:10:30;23.70;69.10
4374;DHT22;2201;51.100;6.814;2023-04-30T12:13:16;23.70;68.60
4374;DHT22;2201;51.100;6.814;2023-04-30T12:15:56;23.80;70.40
4374;DHT22;2201;51.100;6.814;2023-04-30T12:18:25;24.10;70.50
4374;DHT22;2201;51.100;6.814;2023-04-30T12:20:55;24.30;69.30
4374;DHT22;2201;51.100;6.814;2023-04-30T12:23:26;24.60;68.50
4374;DHT22;2201;51.100;6.814;2023-04-30T12:26:02;24.60;68.60
4374;DHT22;2201;51.100;6.814;2023-04-30T12:28:38;24.80;69.90
4374;DHT22;2201;51.100;6.814;2023-04-30T12:31:07;24.80;66.90
4374;DHT22;2201;51.100;6.814;2023-04-30T12:34:10;24.20;65.70
4374;DHT22;2201;51.100;6.814;2023-04-30T12:36:49;23.70;66.60
4374;DHT22;2201;51.100;6.814;2023-04-30T12:39:16;23.90;69.30
4374;DHT22;2201;51.100;6.814;2023-04-30T12:41:44;24.10;69.40
4374;DHT22;2201;51.100;6.814;2023-04-30T12:44:15;23.90;66.40
4374;DHT22;2201;51.100;6.814;2023-04-30T12:46:45;23.50;69.10
4374;DHT22;2201;51.100;6.814;2023-04-30T12:49:21;23.30;69.60
4374;DHT22;2201;51.100;6.814;2023-04-30T12:58:13;23.00;70.10
4374;DHT22;2201;51.100;6.814;2023-04-30T13:00:46;23.00;68.40
4374;DHT22;2201;51.100;6.814;2023-04-30T13:03:15;23.20;69.50
4374;DHT22;2201;51.100;6.814;2023-04-30T13:05:45;23.20;68.90
4374;DHT22;2201;51.100;6.814;2023-04-30T13:08:19;23.30;71.50
4374;DHT22;2201;51.100;6.814;2023-04-30T13:11:09;23.30;69.80
4374;DHT22;2201;51.100;6.814;2023-04-30T13:13:45;23.40;70.50
4374;DHT22;2201;51.100;6.814;2023-04-30T13:16:16;23.50;70.10
4374;DHT22;2201;51.100;6.814;2023-04-30T13:18:47;23.80;71.90
4374;DHT22;2201;51.100;6.814;2023-04-30T13:21:35;23.90;68.40
4374;DHT22;2201;51.100;6.814;2023-04-30T13:24:03;24.00;69.00
4374;DHT22;2201;51.100;6.814;2023-04-30T13:27:02;23.80;67.90
4374;DHT22;2201;51.100;6.814;2023-04-30T13:29:57;23.50;66.80
4374;DHT22;2201;51.100;6.814;2023-04-30T13:32:27;23.70;68.80
4374;DHT22;2201;51.100;6.814;2023-04-30T13:34:54;24.00;67.50
4374;DHT22;2201;51.100;6.814;2023-04-30T13:37:23;24.10;67.70
4374;DHT22;2201;51.100;6.814;2023-04-30T13:39:59;24.20;70.00
4374;DHT22;2201;51.100;6.814;2023-04-30T13:42:42;24.30;66.10
4374;DHT22;2201;51.100;6.814;2023-04-30T13:45:15;23.80;67.30
4374;DHT22;2201;51.100;6.814;2023-04-30T13:47:57;23.40;68.30
4374;DHT22;2201;51.100;6.814;2023-04-30T13:50:26;22.90;67.80
4374;DHT22;2201;51.100;6.814;2023-04-30T13:53:02;22.90;69.00
4374;DHT22;2201;51.100;6.814;2023-04-30T13:55:29;23.10;69.60
4374;DHT22;2201;51.100;6.814;2023-04-30T13:57:56;23.50;71.80
4374;DHT22;2201;51.100;6.814;2023-04-30T14:00:23;23.80;69.50
4374;DHT22;2201;51.100;6.814;2023-04-30T14:02:51;24.00;67.90
4374;DHT22;2201;51.100;6.814;2023-04-30T14:05:19;23.80;66.80
4374;DHT22;2201;51.100;6.814;2023-04-30T14:07:46;23.60;67.90
4374;DHT22;2201;51.100;6.814;2023-04-30T14:10:13;23.10;67.90
4374;DHT22;2201;51.100;6.814;2023-04-30T14:12:40;22.70;69.50
4374;DHT22;2201;51.100;6.814;2023-04-30T14:15:07;22.50;69.70
4374;DHT22;2201;51.100;6.814;2023-04-30T14:17:34;22.50;70.30
4374;DHT22;2201;51.100;6.814;2023-04-30T14:20:03;22.50;72.20
4374;DHT22;2201;51.100;6.814;2023-04-30T14:22:32;22.50;70.00
4374;DHT22;2201;51.100;6.814;2023-04-30T14:25:03;22.40;70.50
4374;DHT22;2201;51.100;6.814;2023-04-30T14:27:30;22.40;71.90
4374;DHT22;2201;51.100;6.814;2023-04-30T14:29:58;22.50;70.90
4374;DHT22;2201;51.100;6.814;2023-04-30T14:32:25;22.70;70.80
4374;DHT22;2201;51.100;6.814;2023-04-30T14:34:52;22.80;71.10
4374;DHT22;2201;51.100;6.814;2023-04-30T14:37:19;23.00;69.90
4374;DHT22;2201;51.100;6.814;2023-04-30T14:39:48;23.10;69.30
4374;DHT22;2201;51.100;6.814;2023-04-30T14:42:17;23.40;70.20
4374;DHT22;2201;51.100;6.814;2023-04-30T14:44:44;23.50;68.70
4374;DHT22;2201;51.100;6.814;2023-04-30T14:47:10;23.40;68.30
4374;DHT22;2201;51.100;6.814;2023-04-30T14:49:38;23.20;69.10
4374;DHT22;2201;51.100;6.814;2023-04-30T14:52:05;23.00;70.40
4374;DHT22;2201;51.100;6.814;2023-04-30T14:54:32;22.80;69.70
4374;DHT22;2201;51.100;6.814;2023-04-30T14:57:00;22.60;70.60
4374;DHT22;2201;51.100;6.814;2023-04-30T14:59:28;22.40;70.60
4374;DHT22;2201;51.100;6.814;2023-04-30T15:01:56;22.30;71.20
4374;DHT22;2201;51.100;6.814;2023-04-30T15:04:23;22.40;70.70
4374;DHT22;2201;51.100;6.814;2023-04-30T15:06:50;22.50;71.10
4374;DHT22;2201;51.100;6.814;2023-04-30T15:09:17;22.70;71.20
4374;DHT22;2201;51.100;6.814;2023-04-30T15:11:43;22.80;70.00
4374;DHT22;2201;51.100;6.814;2023-04-30T15:14:12;22.80;71.00
4374;DHT22;2201;51.100;6.814;2023-04-30T15:16:40;22.70;71.00
4374;DHT22;2201;51.100;6.814;2023-04-30T15:19:08;22.80;70.30
4374;DHT22;2201;51.100;6.814;2023-04-30T15:21:35;22.70;69.90
4374;DHT22;2201;51.100;6.814;2023-04-30T15:24:02;22.80;70.60
4374;DHT22;2201;51.100;6.814;2023-04-30T15:26:29;22.80;70.80
4374;DHT22;2201;51.100;6.814;2023-04-30T15:28:55;22.80;69.60
4374;DHT22;2201;51.100;6.814;2023-04-30T15:31:24;22.60;69.90
4374;DHT22;2201;51.100;6.814;2023-04-30T15:33:51;22.70;70.80
4374;DHT22;2201;51.100;6.814;2023-04-30T15:36:20;22.60;70.80
4374;DHT22;2201;51.100;6.814;2023-04-30T15:38:48;22.40;71.70
4374;DHT22;2201;51.100;6.814;2023-04-30T15:41:15;22.20;71.10
4374;DHT22;2201;51.100;6.814;2023-04-30T15:43:42;22.20;71.50
4374;DHT22;2201;51.100;6.814;2023-04-30T15:46:09;22.00;71.20
4374;DHT22;2201;51.100;6.814;2023-04-30T15:48:38;21.90;71.40
4374;DHT22;2201;51.100;6.814;2023-04-30T15:51:05;22.00;72.00
4374;DHT22;2201;51.100;6.814;2023-04-30T15:53:33;22.10;71.00
4374;DHT22;2201;51.100;6.814;2023-04-30T15:56:00;22.10;71.30
4374;DHT22;2201;51.100;6.814;2023-04-30T15:58:29;22.10;70.90
4374;DHT22;2201;51.100;6.814;2023-04-30T16:00:56;21.90;71.00
4374;DHT22;2201;51.100;6.814;2023-04-30T16:03:23;21.80;72.00
4374;DHT22;2201;51.100;6.814;2023-04-30T16:05:52;21.60;71.80
4374;DHT22;2201;51.100;6.814;2023-04-30T16:08:19;21.30;72.50
4374;DHT22;2201;51.100;6.814;2023-04-30T16:10:47;21.20;73.00
4374;DHT22;2201;51.100;6.814;2023-04-30T16:13:14;21.00;73.30
4374;DHT22;2201;51.100;6.814;2023-04-30T16:15:41;20.80;74.00
4374;DHT22;2201;51.100;6.814;2023-04-30T16:18:08;20.60;74.60
4374;DHT22;2201;51.100;6.814;2023-04-30T16:20:35;20.50;75.30
4374;DHT22;2201;51.100;6.814;2023-04-30T16:23:04;20.40;74.20
4374;DHT22;2201;51.100;6.814;2023-04-30T16:25:34;20.30;75.10
4374;DHT22;2201;51.100;6.814;2023-04-30T16:28:01;20.10;75.70
4374;DHT22;2201;51.100;6.814;2023-04-30T16:30:28;20.10;75.50
4374;DHT22;2201;51.100;6.814;2023-04-30T16:32:56;20.00;75.80
4374;DHT22;2201;51.100;6.814;2023-04-30T16:35:24;19.90;76.10